sensor_id;sensor_type;location;lat;lon;timestamp;pressure;altitude;pressure_sealevel;temperature;humidity
24280;BME280;12395;42.808;23.408;2022-12-11T00:00:41;92900.94;;;12.49;100.00
24280;BME280;12395;42.808;23.408;2022-12-11T00:03:07;92888.94;;;12.51;100.00
24280;BME280;12395;42.808;23.408;2022-12-11T00:05:32;92898.25;;;12.59;100.00
24280;BME280;12395;42.808;23.408;2022-12-11T00:07:58;92895.88;;;12.57;100.00
24280;BME280;12395;42.808;23.408;2022-12-11T00:10:24;92871.97;;;12.47;100.00
24280;BME280;12395;42.808;23.408;2022-12-11T00:12:49;92841.16;;;12.56;100.00
24280;BME280;12395;42.808;23.408;2022-12-11T00:15:15;92856.00;;;12.67;100.00
24280;BME280;12395;42.808;23.408;2022-12-11T00:17:40;92887.06;;;12.72;100.00
24280;BME280;12395;42.808;23.408;2022-12-11T00:20:06;92907.81;;;12.70;100.00
24280;BME280;12395;42.808;23.408;2022-12-11T00:22:32;92878.84;;;12.63;100.00
24280;BME280;12395;42.808;23.408;2022-12-11T00:24:57;92896.66;;;12.68;100.00
24280;BME280;12395;42.808;23.408;2022-12-11T00:27:23;92898.78;;;12.66;100.00
24280;BME280;12395;42.808;23.408;2022-12-11T00:29:48;92863.47;;;12.55;100.00
24280;BME280;12395;42.808;23.408;2022-12-11T00:32:14;92888.69;;;12.53;100.00
24280;BME280;12395;42.808;23.408;2022-12-11T00:34:39;92899.06;;;12.59;100.00
24280;BME280;12395;42.808;23.408;2022-12-11T00:37:05;92867.19;;;12.59;100.00
24280;BME280;12395;42.808;23.408;2022-12-11T00:39:30;92868.22;;;12.58;100.00
24280;BME280;12395;42.808;23.408;2022-12-11T00:41:55;92850.19;;;12.50;100.00
24280;BME280;12395;42.808;23.408;2022-12-11T00:44:22;92865.31;;;12.55;100.00
24280;BME280;12395;42.808;23.408;2022-12-11T00:46:48;92871.41;;;12.60;100.00
24280;BME280;12395;42.808;23.408;2022-12-11T00:49:13;92871.16;;;12.57;100.00
24280;BME280;12395;42.808;23.408;2022-12-11T00:51:39;92877.56;;;12.51;100.00
24280;BME280;12395;42.808;23.408;2022-12-11T00:54:04;92881.25;;;12.50;100.00
24280;BME280;12395;42.808;23.408;2022-12-11T00:56:31;92877.28;;;12.47;100.00
24280;BME280;12395;42.808;23.408;2022-12-11T00:58:56;92865.06;;;12.41;100.00
24280;BME280;12395;42.808;23.408;2022-12-11T01:01:23;92846.97;;;12.53;100.00
24280;BME280;12395;42.808;23.408;2022-12-11T01:03:50;92854.69;;;12.50;100.00
24280;BME280;12395;42.808;23.408;2022-12-11T01:06:18;92860.53;;;12.57;100.00
24280;BME280;12395;42.808;23.408;2022-12-11T01:08:45;92865.56;;;12.53;100.00
24280;BME280;12395;42.808;23.408;2022-12-11T01:11:13;92868.78;;;12.45;100.00
24280;BME280;12395;42.808;23.408;2022-12-11T01:13:40;92883.63;;;12.56;100.00
24280;BME280;12395;42.808;23.408;2022-12-11T01:16:11;92845.13;;;12.54;100.00
24280;BME280;12395;42.808;23.408;2022-12-11T01:18:37;92884.47;;;12.47;100.00
24280;BME280;12395;42.808;23.408;2022-12-11T01:21:08;92914.22;;;12.49;100.00
24280;BME280;12395;42.808;23.408;2022-12-11T01:23:34;92878.09;;;12.27;100.00
24280;BME280;12395;42.808;23.408;2022-12-11T01:26:04;92891.91;;;12.39;100.00
24280;BME280;12395;42.808;23.408;2022-12-11T01:28:30;92872.25;;;12.35;100.00
24280;BME280;12395;42.808;23.408;2022-12-11T01:30:55;92885.78;;;12.34;100.00
24280;BME280;12395;42.808;23.408;2022-12-11T01:33:21;92904.38;;;12.29;100.00
24280;BME280;12395;42.808;23.408;2022-12-11T01:35:46;92829.78;;;12.15;100.00
24280;BME280;12395;42.808;23.408;2022-12-11T01:38:11;92870.13;;;12.22;100.00
24280;BME280;12395;42.808;23.408;2022-12-11T01:40:37;92865.09;;;12.21;100.00
24280;BME280;12395;42.808;23.408;2022-12-11T01:43:02;92873.06;;;12.21;100.00
24280;BME280;12395;42.808;23.408;2022-12-11T01:48:05;92881.03;;;12.16;100.00
24280;BME280;12395;42.808;23.408;2022-12-11T01:50:35;92885.00;;;12.08;100.00
24280;BME280;12395;42.808;23.408;2022-12-11T01:53:03;92887.66;;;11.98;100.00
24280;BME280;12395;42.808;23.408;2022-12-11T01:55:31;92874.94;;;11.95;100.00
24280;BME280;12395;42.808;23.408;2022-12-11T01:57:57;92870.66;;;11.84;100.00
24280;BME280;12395;42.808;23.408;2022-12-11T02:00:22;92890.53;;;11.77;100.00
24280;BME280;12395;42.808;23.408;2022-12-11T02:02:48;92885.47;;;11.65;100.00
24280;BME280;12395;42.808;23.408;2022-12-11T02:05:13;92887.59;;;11.68;100.00
24280;BME280;12395;42.808;23.408;2022-12-11T02:07:48;92870.13;;;11.67;100.00
24280;BME280;12395;42.808;23.408;2022-12-11T02:10:16;92872.97;;;11.65;100.00
24280;BME280;12395;42.808;23.408;2022-12-11T02:15:26;92877.84;;;12.29;100.00
24280;BME280;12395;42.808;23.408;2022-12-11T02:18:05;92866.38;;;12.64;97.77
24280;BME280;12395;42.808;23.408;2022-12-11T02:20:39;92882.78;;;12.86;99.27
24280;BME280;12395;42.808;23.408;2022-12-11T02:29:11;92860.63;;;13.26;85.79
24280;BME280;12395;42.808;23.408;2022-12-11T02:31:49;92845.84;;;13.53;86.42
24280;BME280;12395;42.808;23.408;2022-12-11T02:34:20;92854.84;;;13.57;85.42
24280;BME280;12395;42.808;23.408;2022-12-11T02:36:51;92837.28;;;13.61;81.95
24280;BME280;12395;42.808;23.408;2022-12-11T02:39:20;92831.44;;;13.98;77.26
24280;BME280;12395;42.808;23.408;2022-12-11T02:41:48;92840.84;;;14.19;79.70
24280;BME280;12395;42.808;23.408;2022-12-11T02:44:18;92836.34;;;14.15;80.80
24280;BME280;12395;42.808;23.408;2022-12-11T02:46:45;92842.78;;;14.09;82.14
24280;BME280;12395;42.808;23.408;2022-12-11T02:49:12;92845.44;;;14.09;84.03
24280;BME280;12395;42.808;23.408;2022-12-11T02:51:42;92833.56;;;13.96;84.97
24280;BME280;12395;42.808;23.408;2022-12-11T02:54:29;92833.63;;;13.86;86.35
24280;BME280;12395;42.808;23.408;2022-12-11T02:57:00;92855.13;;;13.94;86.50
24280;BME280;12395;42.808;23.408;2022-12-11T02:59:33;92845.59;;;13.88;87.56
24280;BME280;12395;42.808;23.408;2022-12-11T03:02:00;92836.09;;;13.77;88.52
24280;BME280;12395;42.808;23.408;2022-12-11T03:04:27;92843.03;;;13.73;88.84
24280;BME280;12395;42.808;23.408;2022-12-11T03:06:55;92853.38;;;13.80;88.83
24280;BME280;12395;42.808;23.408;2022-12-11T03:09:24;92844.84;;;13.83;89.11
24280;BME280;12395;42.808;23.408;2022-12-11T03:11:51;92844.13;;;13.72;89.21
24280;BME280;12395;42.808;23.408;2022-12-11T03:14:16;92843.59;;;13.70;89.30
24280;BME280;12395;42.808;23.408;2022-12-11T03:16:53;92858.75;;;13.70;90.34
24280;BME280;12395;42.808;23.408;2022-12-11T03:22:47;92878.16;;;13.75;91.25
24280;BME280;12395;42.808;23.408;2022-12-11T03:25:19;92889.28;;;13.82;92.03
24280;BME280;12395;42.808;23.408;2022-12-11T03:30:19;92892.78;;;13.78;92.99
24280;BME280;12395;42.808;23.408;2022-12-11T03:32:57;92889.81;;;13.79;92.92
24280;BME280;12395;42.808;23.408;2022-12-11T03:38:18;92887.81;;;13.66;94.53
24280;BME280;12395;42.808;23.408;2022-12-11T03:40:48;92877.19;;;13.56;95.10
24280;BME280;12395;42.808;23.408;2022-12-11T03:43:16;92901.63;;;13.68;95.45
24280;BME280;12395;42.808;23.408;2022-12-11T03:45:42;92895.28;;;13.59;95.70
24280;BME280;12395;42.808;23.408;2022-12-11T03:48:10;92908.53;;;13.69;96.14
24280;BME280;12395;42.808;23.408;2022-12-11T03:50:38;92901.66;;;13.58;96.97
24280;BME280;12395;42.808;23.408;2022-12-11T03:53:04;92882.06;;;13.39;97.96
24280;BME280;12395;42.808;23.408;2022-12-11T03:55:31;92895.88;;;13.51;98.31
24280;BME280;12395;42.808;23.408;2022-12-11T03:57:57;92926.66;;;13.62;98.96
24280;BME280;12395;42.808;23.408;2022-12-11T04:00:23;92928.50;;;13.67;99.06
24280;BME280;12395;42.808;23.408;2022-12-11T04:02:49;92916.03;;;13.57;99.18
24280;BME280;12395;42.808;23.408;2022-12-11T04:05:34;92934.09;;;13.65;99.33
24280;BME280;12395;42.808;23.408;2022-12-11T04:08:00;92909.63;;;13.63;99.64
24280;BME280;12395;42.808;23.408;2022-12-11T04:10:26;92892.09;;;13.57;99.86
24280;BME280;12395;42.808;23.408;2022-12-11T04:12:51;92898.19;;;13.63;100.00
24280;BME280;12395;42.808;23.408;2022-12-11T04:15:17;92896.84;;;13.65;100.00
24280;BME280;12395;42.808;23.408;2022-12-11T04:17:42;92894.75;;;13.57;100.00
24280;BME280;12395;42.808;23.408;2022-12-11T04:20:26;92898.00;;;13.49;100.00
24280;BME280;12395;42.808;23.408;2022-12-11T04:23:14;92926.41;;;13.59;100.00
24280;BME280;12395;42.808;23.408;2022-12-11T04:26:17;92937.81;;;13.64;100.00
24280;BME280;12395;42.808;23.408;2022-12-11T04:28:45;92941.03;;;13.66;100.00
24280;BME280;12395;42.808;23.408;2022-12-11T04:31:13;92917.88;;;13.62;100.00
24280;BME280;12395;42.808;23.408;2022-12-11T04:33:39;92919.72;;;13.66;100.00
24280;BME280;12395;42.808;23.408;2022-12-11T04:36:05;92928.00;;;13.60;100.00
24280;BME280;12395;42.808;23.408;2022-12-11T04:38:31;92934.44;;;13.49;100.00
24280;BME280;12395;42.808;23.408;2022-12-11T04:41:00;92949.81;;;13.62;100.00
24280;BME280;12395;42.808;23.408;2022-12-11T04:43:27;92940.00;;;13.57;100.00
24280;BME280;12395;42.808;23.408;2022-12-11T04:46:06;92960.69;;;13.65;100.00
24280;BME280;12395;42.808;23.408;2022-12-11T04:48:32;92964.41;;;13.64;100.00
24280;BME280;12395;42.808;23.408;2022-12-11T04:50:57;92949.53;;;13.58;100.00
24280;BME280;12395;42.808;23.408;2022-12-11T04:53:23;92965.78;;;13.62;100.00
24280;BME280;12395;42.808;23.408;2022-12-11T04:55:48;92971.63;;;13.64;100.00
24280;BME280;12395;42.808;23.408;2022-12-11T04:58:14;92965.50;;;13.58;100.00
24280;BME280;12395;42.808;23.408;2022-12-11T05:00:40;92960.19;;;13.58;100.00
24280;BME280;12395;42.808;23.408;2022-12-11T05:03:06;92967.63;;;13.61;100.00
24280;BME280;12395;42.808;23.408;2022-12-11T05:05:31;92973.53;;;13.53;100.00
24280;BME280;12395;42.808;23.408;2022-12-11T05:07:57;92969.28;;;13.47;100.00
24280;BME280;12395;42.808;23.408;2022-12-11T05:10:22;92949.94;;;13.32;100.00
24280;BME280;12395;42.808;23.408;2022-12-11T05:12:47;92956.59;;;13.29;100.00
24280;BME280;12395;42.808;23.408;2022-12-11T05:15:13;92965.88;;;13.32;100.00
24280;BME280;12395;42.808;23.408;2022-12-11T05:17:38;92956.59;;;13.29;100.00
24280;BME280;12395;42.808;23.408;2022-12-11T05:20:04;92961.63;;;13.36;100.00
24280;BME280;12395;42.808;23.408;2022-12-11T05:22:30;92972.00;;;13.32;100.00
24280;BME280;12395;42.808;23.408;2022-12-11T05:24:56;92946.78;;;13.09;100.00
24280;BME280;12395;42.808;23.408;2022-12-11T05:27:21;92957.16;;;13.16;100.00
24280;BME280;12395;42.808;23.408;2022-12-11T05:29:47;92951.56;;;13.02;100.00
24280;BME280;12395;42.808;23.408;2022-12-11T05:32:12;92958.75;;;13.02;100.00
24280;BME280;12395;42.808;23.408;2022-12-11T05:34:38;92968.59;;;13.01;100.00
24280;BME280;12395;42.808;23.408;2022-12-11T05:37:03;92969.13;;;13.03;100.00
24280;BME280;12395;42.808;23.408;2022-12-11T05:39:28;92972.06;;;13.02;100.00
24280;BME280;12395;42.808;23.408;2022-12-11T05:41:54;92954.53;;;12.86;100.00
24280;BME280;12395;42.808;23.408;2022-12-11T05:44:19;92965.16;;;12.91;100.00
24280;BME280;12395;42.808;23.408;2022-12-11T05:46:45;92955.88;;;12.78;100.00
24280;BME280;12395;42.808;23.408;2022-12-11T05:49:10;92961.97;;;12.89;100.00
24280;BME280;12395;42.808;23.408;2022-12-11T05:51:36;92953.47;;;12.87;100.00
24280;BME280;12395;42.808;23.408;2022-12-11T05:54:03;92961.94;;;12.94;100.00
24280;BME280;12395;42.808;23.408;2022-12-11T05:56:31;92955.84;;;12.93;100.00
24280;BME280;12395;42.808;23.408;2022-12-11T05:58:59;92955.56;;;12.90;100.00
24280;BME280;12395;42.808;23.408;2022-12-11T06:01:28;92949.75;;;12.83;100.00
24280;BME280;12395;42.808;23.408;2022-12-11T06:03:55;92940.97;;;12.77;100.00
24280;BME280;12395;42.808;23.408;2022-12-11T06:06:20;92924.25;;;12.72;100.00
24280;BME280;12395;42.808;23.408;2022-12-11T06:08:49;92940.22;;;12.72;100.00
24280;BME280;12395;42.808;23.408;2022-12-11T06:11:15;92927.72;;;12.67;100.00
24280;BME280;12395;42.808;23.408;2022-12-11T06:13:41;92935.41;;;12.69;100.00
24280;BME280;12395;42.808;23.408;2022-12-11T06:16:07;92945.53;;;12.72;100.00
24280;BME280;12395;42.808;23.408;2022-12-11T06:18:40;92948.97;;;12.72;100.00
24280;BME280;12395;42.808;23.408;2022-12-11T06:23:38;92945.00;;;12.65;100.00
24280;BME280;12395;42.808;23.408;2022-12-11T06:26:04;92965.44;;;12.74;100.00
24280;BME280;12395;42.808;23.408;2022-12-11T06:28:30;92961.97;;;12.69;100.00
24280;BME280;12395;42.808;23.408;2022-12-11T06:30:59;92971.00;;;12.78;100.00
24280;BME280;12395;42.808;23.408;2022-12-11T06:33:25;92977.38;;;12.77;100.00
24280;BME280;12395;42.808;23.408;2022-12-11T06:35:51;92974.72;;;12.77;100.00
24280;BME280;12395;42.808;23.408;2022-12-11T06:38:17;92973.94;;;12.71;100.00
24280;BME280;12395;42.808;23.408;2022-12-11T06:40:42;92973.41;;;12.79;100.00
24280;BME280;12395;42.808;23.408;2022-12-11T06:43:08;92960.91;;;12.75;100.00
24280;BME280;12395;42.808;23.408;2022-12-11T06:45:33;92973.13;;;12.71;100.00
24280;BME280;12395;42.808;23.408;2022-12-11T06:48:00;92987.22;;;12.81;100.00
24280;BME280;12395;42.808;23.408;2022-12-11T06:50:25;92970.19;;;12.87;100.00
24280;BME280;12395;42.808;23.408;2022-12-11T06:52:51;92954.53;;;12.91;100.00
24280;BME280;12395;42.808;23.408;2022-12-11T06:55:16;92959.28;;;12.94;100.00
24280;BME280;12395;42.808;23.408;2022-12-11T06:57:42;92977.91;;;13.09;100.00
24280;BME280;12395;42.808;23.408;2022-12-11T07:00:08;92967.53;;;13.12;100.00
24280;BME280;12395;42.808;23.408;2022-12-11T07:02:33;92980.81;;;13.18;100.00
24280;BME280;12395;42.808;23.408;2022-12-11T07:04:58;92975.75;;;13.21;100.00
24280;BME280;12395;42.808;23.408;2022-12-11T07:07:24;92971.50;;;13.25;100.00
24280;BME280;12395;42.808;23.408;2022-12-11T07:09:49;92985.28;;;13.37;100.00
24280;BME280;12395;42.808;23.408;2022-12-11T07:12:15;92985.84;;;13.34;100.00
24280;BME280;12395;42.808;23.408;2022-12-11T07:14:41;92992.97;;;13.39;99.80
24280;BME280;12395;42.808;23.408;2022-12-11T07:17:06;92986.59;;;13.45;98.28
24280;BME280;12395;42.808;23.408;2022-12-11T07:19:31;92992.41;;;13.52;97.05
24280;BME280;12395;42.808;23.408;2022-12-11T07:21:57;93003.81;;;13.62;96.93
24280;BME280;12395;42.808;23.408;2022-12-11T07:24:23;93008.06;;;13.68;96.82
24280;BME280;12395;42.808;23.408;2022-12-11T07:26:49;93016.28;;;13.77;95.14
24280;BME280;12395;42.808;23.408;2022-12-11T07:29:15;93009.28;;;13.86;94.17
24280;BME280;12395;42.808;23.408;2022-12-11T07:31:40;93029.25;;;13.93;93.28
24280;BME280;12395;42.808;23.408;2022-12-11T07:34:06;93014.84;;;13.94;94.00
24280;BME280;12395;42.808;23.408;2022-12-11T07:36:32;93044.88;;;14.05;93.52
24280;BME280;12395;42.808;23.408;2022-12-11T07:38:59;93038.03;;;13.94;93.35
24280;BME280;12395;42.808;23.408;2022-12-11T07:41:25;93058.72;;;14.07;92.85
24280;BME280;12395;42.808;23.408;2022-12-11T07:43:52;93049.16;;;14.01;92.90
24280;BME280;12395;42.808;23.408;2022-12-11T07:46:21;93049.44;;;14.05;92.82
24280;BME280;12395;42.808;23.408;2022-12-11T07:48:47;93056.78;;;14.23;92.00
24280;BME280;12395;42.808;23.408;2022-12-11T07:51:24;93044.06;;;14.15;91.65
24280;BME280;12395;42.808;23.408;2022-12-11T07:54:02;93048.56;;;14.19;90.75
24280;BME280;12395;42.808;23.408;2022-12-11T07:56:29;93052.03;;;14.20;90.43
24280;BME280;12395;42.808;23.408;2022-12-11T07:58:55;93042.13;;;14.25;89.80
24280;BME280;12395;42.808;23.408;2022-12-11T08:01:25;93041.56;;;14.33;89.73
24280;BME280;12395;42.808;23.408;2022-12-11T08:03:51;93046.91;;;14.33;89.71
24280;BME280;12395;42.808;23.408;2022-12-11T08:06:18;93054.34;;;14.36;90.76
24280;BME280;12395;42.808;23.408;2022-12-11T08:08:46;93055.19;;;14.32;89.90
24280;BME280;12395;42.808;23.408;2022-12-11T08:11:13;93048.25;;;14.31;90.22
24280;BME280;12395;42.808;23.408;2022-12-11T08:13:39;93045.56;;;14.31;89.62
24280;BME280;12395;42.808;23.408;2022-12-11T08:16:07;93050.13;;;14.30;88.85
24280;BME280;12395;42.808;23.408;2022-12-11T08:18:34;93053.78;;;14.44;88.99
24280;BME280;12395;42.808;23.408;2022-12-11T08:21:07;93048.69;;;14.48;88.65
24280;BME280;12395;42.808;23.408;2022-12-11T08:23:33;93035.94;;;14.45;89.06
24280;BME280;12395;42.808;23.408;2022-12-11T08:26:02;93056.09;;;14.56;89.38
24280;BME280;12395;42.808;23.408;2022-12-11T08:28:27;93048.16;;;14.46;89.52
24280;BME280;12395;42.808;23.408;2022-12-11T08:30:53;93044.94;;;14.49;90.43
24280;BME280;12395;42.808;23.408;2022-12-11T08:33:18;93029.28;;;14.42;90.40
24280;BME280;12395;42.808;23.408;2022-12-11T08:35:44;93021.50;;;14.46;90.14
24280;BME280;12395;42.808;23.408;2022-12-11T08:38:10;93030.72;;;14.63;88.83
24280;BME280;12395;42.808;23.408;2022-12-11T08:40:35;93025.13;;;14.65;89.06
24280;BME280;12395;42.808;23.408;2022-12-11T08:43:01;93023.50;;;14.69;88.63
24280;BME280;12395;42.808;23.408;2022-12-11T08:45:26;93025.84;;;14.76;88.15
24280;BME280;12395;42.808;23.408;2022-12-11T08:47:51;93025.59;;;14.72;87.42
24280;BME280;12395;42.808;23.408;2022-12-11T08:50:18;93027.72;;;14.75;86.34
24280;BME280;12395;42.808;23.408;2022-12-11T08:52:43;93030.94;;;14.72;82.70
24280;BME280;12395;42.808;23.408;2022-12-11T08:55:09;93045.88;;;14.73;81.79
24280;BME280;12395;42.808;23.408;2022-12-11T08:57:34;93052.78;;;14.74;79.88
24280;BME280;12395;42.808;23.408;2022-12-11T08:59:59;93039.50;;;14.69;79.01
24280;BME280;12395;42.808;23.408;2022-12-11T09:02:25;93028.25;;;14.72;77.26
24280;BME280;12395;42.808;23.408;2022-12-11T09:04:50;93027.41;;;14.82;77.73
24280;BME280;12395;42.808;23.408;2022-12-11T09:07:15;93024.22;;;14.80;76.50
24280;BME280;12395;42.808;23.408;2022-12-11T09:09:41;93019.94;;;14.84;78.41
24280;BME280;12395;42.808;23.408;2022-12-11T09:12:06;93022.31;;;14.85;80.70
24280;BME280;12395;42.808;23.408;2022-12-11T09:14:32;93014.91;;;14.77;83.34
24280;BME280;12395;42.808;23.408;2022-12-11T09:16:57;93021.91;;;14.68;85.66
24280;BME280;12395;42.808;23.408;2022-12-11T09:19:22;93023.56;;;14.59;87.85
24280;BME280;12395;42.808;23.408;2022-12-11T09:21:48;93009.78;;;14.52;89.65
24280;BME280;12395;42.808;23.408;2022-12-11T09:24:14;93020.66;;;14.60;90.85
24280;BME280;12395;42.808;23.408;2022-12-11T09:26:40;93010.25;;;14.59;91.16
24280;BME280;12395;42.808;23.408;2022-12-11T09:29:06;93007.31;;;14.60;90.10
24280;BME280;12395;42.808;23.408;2022-12-11T09:31:34;93016.03;;;14.71;90.73
24280;BME280;12395;42.808;23.408;2022-12-11T09:34:08;93015.97;;;14.76;90.01
24280;BME280;12395;42.808;23.408;2022-12-11T09:36:37;93001.31;;;14.79;89.26
24280;BME280;12395;42.808;23.408;2022-12-11T09:39:04;92993.53;;;14.82;88.83
24280;BME280;12395;42.808;23.408;2022-12-11T09:46:42;92996.56;;;14.99;88.49
24280;BME280;12395;42.808;23.408;2022-12-11T09:54:47;92983.75;;;15.01;87.55
24280;BME280;12395;42.808;23.408;2022-12-11T10:08:01;92995.53;;;15.00;81.13
24280;BME280;12395;42.808;23.408;2022-12-11T10:10:40;93007.25;;;14.99;80.77
24280;BME280;12395;42.808;23.408;2022-12-11T10:16:04;92995.88;;;14.89;82.21
24280;BME280;12395;42.808;23.408;2022-12-11T10:18:34;92976.28;;;14.75;81.97
24280;BME280;12395;42.808;23.408;2022-12-11T10:21:01;92993.06;;;14.75;82.19
24280;BME280;12395;42.808;23.408;2022-12-11T10:23:39;92997.41;;;14.66;83.76
24280;BME280;12395;42.808;23.408;2022-12-11T10:26:15;93001.38;;;14.68;82.99
24280;BME280;12395;42.808;23.408;2022-12-11T10:28:41;92993.19;;;14.60;83.81
24280;BME280;12395;42.808;23.408;2022-12-11T10:31:19;92992.06;;;14.66;84.63
24280;BME280;12395;42.808;23.408;2022-12-11T10:33:58;93004.56;;;14.71;84.59
24280;BME280;12395;42.808;23.408;2022-12-11T10:36:33;92996.38;;;14.62;85.44
24280;BME280;12395;42.808;23.408;2022-12-11T10:38:59;93003.03;;;14.59;85.91
24280;BME280;12395;42.808;23.408;2022-12-11T10:41:42;92993.72;;;14.62;86.21
24280;BME280;12395;42.808;23.408;2022-12-11T10:44:34;93002.00;;;14.60;85.50
24280;BME280;12395;42.808;23.408;2022-12-11T10:49:29;92995.56;;;14.61;86.03
24280;BME280;12395;42.808;23.408;2022-12-11T10:51:56;92979.09;;;14.54;86.37
24280;BME280;12395;42.808;23.408;2022-12-11T10:56:57;92984.41;;;14.59;86.81
24280;BME280;12395;42.808;23.408;2022-12-11T11:04:52;92982.13;;;14.77;87.24
24280;BME280;12395;42.808;23.408;2022-12-11T11:07:36;92988.16;;;14.87;86.15
24280;BME280;12395;42.808;23.408;2022-12-11T11:12:35;92989.78;;;14.88;86.20
24280;BME280;12395;42.808;23.408;2022-12-11T11:15:09;92972.16;;;14.87;86.06
24280;BME280;12395;42.808;23.408;2022-12-11T11:17:45;92975.84;;;14.91;86.66
24280;BME280;12395;42.808;23.408;2022-12-11T11:20:14;92962.53;;;14.91;86.08
24280;BME280;12395;42.808;23.408;2022-12-11T11:22:44;92963.00;;;14.98;86.15
24280;BME280;12395;42.808;23.408;2022-12-11T11:25:21;92953.91;;;14.99;86.07
24280;BME280;12395;42.808;23.408;2022-12-11T11:28:18;92964.22;;;15.11;85.58
24280;BME280;12395;42.808;23.408;2022-12-11T11:30:55;92964.44;;;15.14;85.66
24280;BME280;12395;42.808;23.408;2022-12-11T11:33:21;92960.09;;;15.23;86.11
24280;BME280;12395;42.808;23.408;2022-12-11T11:38:25;92950.69;;;15.31;85.56
24280;BME280;12395;42.808;23.408;2022-12-11T11:40:59;92951.69;;;15.35;85.84
24280;BME280;12395;42.808;23.408;2022-12-11T11:43:47;92959.97;;;15.33;85.90
24280;BME280;12395;42.808;23.408;2022-12-11T11:48:54;92942.25;;;15.19;86.31
24280;BME280;12395;42.808;23.408;2022-12-11T11:51:26;92930.75;;;15.23;86.34
24280;BME280;12395;42.808;23.408;2022-12-11T11:53:57;92915.81;;;15.22;86.11
24280;BME280;12395;42.808;23.408;2022-12-11T11:56:26;92919.88;;;15.43;86.42
24280;BME280;12395;42.808;23.408;2022-12-11T11:59:01;92926.03;;;15.39;86.50
24280;BME280;12395;42.808;23.408;2022-12-11T12:01:28;92926.38;;;15.32;87.74
24280;BME280;12395;42.808;23.408;2022-12-11T12:03:55;92924.38;;;15.19;87.94
24280;BME280;12395;42.808;23.408;2022-12-11T12:28:09;92915.28;;;14.01;91.20
24280;BME280;12395;42.808;23.408;2022-12-11T12:30:50;92931.44;;;13.65;92.06
24280;BME280;12395;42.808;23.408;2022-12-11T12:36:17;92930.88;;;12.84;91.16
24280;BME280;12395;42.808;23.408;2022-12-11T12:41:52;92950.56;;;12.28;94.50
24280;BME280;12395;42.808;23.408;2022-12-11T12:44:22;92937.56;;;12.16;95.87
24280;BME280;12395;42.808;23.408;2022-12-11T12:49:39;92950.25;;;11.84;100.00
24280;BME280;12395;42.808;23.408;2022-12-11T12:52:10;92947.50;;;11.59;100.00
24280;BME280;12395;42.808;23.408;2022-12-11T12:54:38;92967.34;;;11.46;100.00
24280;BME280;12395;42.808;23.408;2022-12-11T12:57:04;92963.25;;;11.19;100.00
24280;BME280;12395;42.808;23.408;2022-12-11T12:59:30;92972.81;;;11.20;100.00
24280;BME280;12395;42.808;23.408;2022-12-11T13:01:58;92959.47;;;11.05;100.00
24280;BME280;12395;42.808;23.408;2022-12-11T13:04:41;92975.41;;;11.10;100.00
24280;BME280;12395;42.808;23.408;2022-12-11T13:07:21;92966.13;;;11.07;100.00
24280;BME280;12395;42.808;23.408;2022-12-11T13:10:26;92973.81;;;11.09;100.00
24280;BME280;12395;42.808;23.408;2022-12-11T13:12:52;92955.75;;;11.01;100.00
24280;BME280;12395;42.808;23.408;2022-12-11T13:15:31;92985.44;;;11.03;100.00
24280;BME280;12395;42.808;23.408;2022-12-11T13:17:59;92977.66;;;10.91;100.00
24280;BME280;12395;42.808;23.408;2022-12-11T13:20:28;92983.66;;;10.76;100.00
24280;BME280;12395;42.808;23.408;2022-12-11T13:25:27;92980.16;;;10.66;100.00
24280;BME280;12395;42.808;23.408;2022-12-11T13:28:04;92988.84;;;10.61;100.00
24280;BME280;12395;42.808;23.408;2022-12-11T13:30:29;92971.22;;;10.40;100.00
24280;BME280;12395;42.808;23.408;2022-12-11T13:35:27;93001.06;;;10.31;100.00
24280;BME280;12395;42.808;23.408;2022-12-11T13:37:55;92998.88;;;10.23;100.00
24280;BME280;12395;42.808;23.408;2022-12-11T13:40:27;93009.16;;;10.19;100.00
24280;BME280;12395;42.808;23.408;2022-12-11T13:43:02;93025.59;;;10.21;100.00
24280;BME280;12395;42.808;23.408;2022-12-11T13:45:48;93013.03;;;10.12;100.00
24280;BME280;12395;42.808;23.408;2022-12-11T13:48:18;93022.34;;;10.14;100.00
24280;BME280;12395;42.808;23.408;2022-12-11T13:50:46;93016.28;;;9.92;100.00
24280;BME280;12395;42.808;23.408;2022-12-11T13:53:15;93054.84;;;9.88;100.00
24280;BME280;12395;42.808;23.408;2022-12-11T13:55:41;93040.94;;;9.54;100.00
24280;BME280;12395;42.808;23.408;2022-12-11T13:58:20;93044.50;;;9.43;100.00
24280;BME280;12395;42.808;23.408;2022-12-11T14:01:03;93049.41;;;9.34;100.00
24280;BME280;12395;42.808;23.408;2022-12-11T14:03:31;93053.94;;;9.17;100.00
24280;BME280;12395;42.808;23.408;2022-12-11T14:05:58;93047.91;;;9.00;100.00
24280;BME280;12395;42.808;23.408;2022-12-11T14:08:30;93060.53;;;8.98;100.00
24280;BME280;12395;42.808;23.408;2022-12-11T14:10:58;93063.19;;;8.98;100.00
24280;BME280;12395;42.808;23.408;2022-12-11T14:13:26;93059.84;;;8.86;100.00
24280;BME280;12395;42.808;23.408;2022-12-11T14:15:55;93071.22;;;8.87;100.00
24280;BME280;12395;42.808;23.408;2022-12-11T14:18:22;93076.50;;;8.87;100.00
24280;BME280;12395;42.808;23.408;2022-12-11T14:20:56;93085.69;;;8.84;100.00
24280;BME280;12395;42.808;23.408;2022-12-11T14:23:25;93081.94;;;8.80;100.00
24280;BME280;12395;42.808;23.408;2022-12-11T14:26:00;93094.72;;;8.88;100.00
24280;BME280;12395;42.808;23.408;2022-12-11T14:28:27;93079.38;;;8.85;100.00
24280;BME280;12395;42.808;23.408;2022-12-11T14:30:58;93097.38;;;8.88;100.00
24280;BME280;12395;42.808;23.408;2022-12-11T14:33:31;93104.19;;;8.84;100.00